Time;durP1;ratioP1;P1;durP2;ratioP2;P2;SDS_P1;SDS_P2;PMS_P1;PMS_P2;Temp;Humidity;BMP_temperature;BMP_pressure;BME280_temperature;BME280_humidity;BME280_pressure;Samples;Min_cycle;Max_cycle;Signal;HPM_P1;HPM_P2
2022/02/23 00:00:17;;;;;;;8.02;5.22;;;;;;;6.10;90.65;99982.66;5069844;28;20033;-22
2022/02/23 00:02:42;;;;;;;7.90;4.60;;;;;;;6.13;90.88;99969.03;5051506;28;20021;-22
2022/02/23 00:05:08;;;;;;;9.23;5.75;;;;;;;6.07;90.86;99951.25;5069566;28;20717;-22
2022/02/23 00:07:34;;;;;;;7.30;4.47;;;;;;;6.15;89.56;99967.84;5069570;28;20507;-21
2022/02/23 00:10:00;;;;;;;6.68;3.97;;;;;;;6.13;89.62;99974.31;5068408;28;20036;-22
2022/02/23 00:12:25;;;;;;;7.53;4.80;;;;;;;6.30;88.90;99977.53;5069498;28;20063;-22
2022/02/23 00:14:51;;;;;;;6.78;4.43;;;;;;;6.32;88.71;99981.59;5069405;28;20488;-22
2022/02/23 00:17:16;;;;;;;7.22;4.63;;;;;;;6.42;89.06;99979.44;5069300;28;20029;-21
2022/02/23 00:19:43;;;;;;;7.03;4.10;;;;;;;6.24;87.90;99971.97;5069277;28;20028;-22
2022/02/23 00:22:08;;;;;;;6.57;4.22;;;;;;;6.33;88.18;99985.06;5069203;28;20036;-22
2022/02/23 00:24:34;;;;;;;7.40;4.32;;;;;;;6.36;87.89;99979.41;5068778;28;20032;-21
2022/02/23 00:26:59;;;;;;;7.38;4.57;;;;;;;6.65;87.10;99986.28;5051106;28;20033;-22
2022/02/23 00:29:25;;;;;;;6.78;4.28;;;;;;;6.68;86.74;99993.88;5068997;28;20030;-23
2022/02/23 00:31:50;;;;;;;6.43;4.28;;;;;;;6.69;86.05;99984.88;5069103;28;20495;-22
2022/02/23 00:34:16;;;;;;;9.00;5.32;;;;;;;6.72;85.82;99987.16;5069217;28;20404;-22
2022/02/23 00:36:43;;;;;;;7.90;4.63;;;;;;;6.63;85.47;99969.78;5068847;28;20039;-21
2022/02/23 00:39:09;;;;;;;8.00;5.03;;;;;;;6.93;84.71;99990.75;5050576;28;20503;-22
2022/02/23 00:41:34;;;;;;;7.78;5.15;;;;;;;7.01;84.68;99996.69;5069083;28;20041;-22
2022/02/23 00:44:00;;;;;;;7.93;4.90;;;;;;;6.97;84.21;99997.28;5068959;28;20499;-21
2022/02/23 00:46:25;;;;;;;8.77;5.20;;;;;;;6.94;84.08;99997.66;5051292;28;20055;-22
2022/02/23 00:48:53;;;;;;;9.07;4.90;;;;;;;7.12;83.68;99997.94;5068306;28;20037;-21
2022/02/23 00:51:19;;;;;;;8.68;5.43;;;;;;;7.19;83.58;99996.16;5068867;28;20097;-22
2022/02/23 00:53:45;;;;;;;7.57;4.93;;;;;;;7.19;83.08;99996.16;5068360;28;20033;-22
2022/02/23 00:56:10;;;;;;;9.10;5.18;;;;;;;6.92;84.39;99997.84;5068629;28;20047;-22
2022/02/23 00:58:36;;;;;;;7.68;5.28;;;;;;;7.11;84.19;100001.63;5068581;28;20036;-21
2022/02/23 01:01:01;;;;;;;8.70;5.28;;;;;;;7.00;83.33;99981.78;5068485;28;20500;-22
2022/02/23 01:03:26;;;;;;;8.30;5.57;;;;;;;7.24;83.98;100001.66;5050527;28;20101;-22
2022/02/23 01:05:52;;;;;;;8.48;5.43;;;;;;;7.19;84.28;99995.31;5068406;28;20044;-22
2022/02/23 01:08:17;;;;;;;7.50;4.93;;;;;;;6.93;83.91;99991.53;5068279;28;20090;-21
2022/02/23 01:10:43;;;;;;;8.15;5.60;;;;;;;6.91;84.02;99984.81;5068296;28;20087;-21
2022/02/23 01:13:09;;;;;;;8.52;5.38;;;;;;;6.80;84.70;99994.97;5050041;28;20515;-22
2022/02/23 01:15:35;;;;;;;9.00;5.78;;;;;;;6.81;84.71;99999.22;5068386;28;20086;-21
2022/02/23 01:18:00;;;;;;;9.00;5.63;;;;;;;6.87;84.29;100007.44;5068254;28;20565;-22
2022/02/23 01:20:25;;;;;;;9.35;6.18;;;;;;;6.72;85.57;100011.03;5050343;28;20036;-22
2022/02/23 01:22:55;;;;;;;8.20;5.30;;;;;;;6.66;85.01;100011.78;5067820;28;20870;-22
2022/02/23 01:25:21;;;;;;;10.40;6.22;;;;;;;6.78;84.37;99991.69;5068338;28;20032;-22
2022/02/23 01:27:46;;;;;;;9.23;6.10;;;;;;;6.95;83.99;100007.25;5068006;28;20036;-22
2022/02/23 01:30:12;;;;;;;9.27;5.80;;;;;;;6.79;84.25;100001.25;5068332;28;20078;-22
2022/02/23 01:32:37;;;;;;;9.57;5.88;;;;;;;6.84;84.66;99998.84;5067666;28;20042;-21
2022/02/23 01:35:03;;;;;;;9.50;6.35;;;;;;;6.92;83.66;100010.28;5068050;28;20063;-22
2022/02/23 01:37:28;;;;;;;9.48;5.72;;;;;;;7.05;83.88;100007.72;5067632;28;20068;-23
2022/02/23 01:39:54;;;;;;;9.75;6.68;;;;;;;6.94;83.61;100008.25;5068274;28;20036;-21
2022/02/23 01:42:19;;;;;;;8.98;5.95;;;;;;;7.11;82.69;100014.88;5067807;28;20028;-22
2022/02/23 01:44:45;;;;;;;9.68;6.00;;;;;;;7.06;83.21;100017.31;5049759;28;20103;-22
2022/02/23 01:47:10;;;;;;;8.77;5.80;;;;;;;7.18;82.29;100013.06;5068051;28;20029;-22
2022/02/23 01:49:36;;;;;;;9.15;5.97;;;;;;;7.14;82.28;100030.38;5049557;28;20553;-22
2022/02/23 01:52:02;;;;;;;9.75;6.03;;;;;;;7.00;82.60;100028.69;5067647;28;20044;-22
2022/02/23 01:54:27;;;;;;;8.98;6.10;;;;;;;7.13;81.28;100018.16;5049724;28;20454;-22
2022/02/23 01:56:53;;;;;;;8.98;5.47;;;;;;;7.20;81.54;100040.22;5067733;28;20561;-21
2022/02/23 01:59:19;;;;;;;8.85;6.38;;;;;;;7.21;81.37;100041.03;5067597;28;20035;-22
2022/02/23 02:01:44;;;;;;;9.27;6.15;;;;;;;7.27;81.62;100034.94;5067744;28;20119;-22
2022/02/23 02:04:10;;;;;;;8.32;5.65;;;;;;;7.26;82.24;100037.81;5067672;28;20404;-22
2022/02/23 02:06:35;;;;;;;8.43;5.90;;;;;;;7.30;80.85;100026.59;5049180;28;20145;-22
2022/02/23 02:09:01;;;;;;;9.95;6.40;;;;;;;7.40;82.12;100042.13;5067787;28;20029;-22
2022/02/23 02:11:26;;;;;;;9.82;6.25;;;;;;;7.58;82.06;100036.25;5049270;28;20061;-22
2022/02/23 02:13:52;;;;;;;8.88;6.15;;;;;;;7.82;80.40;100045.50;5067536;28;20737;-22
2022/02/23 02:16:18;;;;;;;9.65;6.20;;;;;;;7.91;79.50;100041.66;5049364;28;20028;-22
2022/02/23 02:18:43;;;;;;;9.52;6.20;;;;;;;7.87;80.25;100035.13;5067432;28;20047;-22
2022/02/23 02:21:09;;;;;;;9.82;7.05;;;;;;;7.76;80.38;100052.44;5067260;28;20039;-22
2022/02/23 02:23:34;;;;;;;8.68;5.80;;;;;;;7.82;80.78;100042.84;5067346;28;20032;-21
2022/02/23 02:25:59;;;;;;;9.80;6.20;;;;;;;7.73;80.59;100046.72;5067613;28;20031;-23
2022/02/23 02:28:25;;;;;;;8.30;5.85;;;;;;;7.94;79.87;100051.88;5067425;28;20607;-22
2022/02/23 02:30:50;;;;;;;10.23;6.72;;;;;;;8.09;78.45;100054.34;5067279;28;20051;-22
2022/02/23 02:33:16;;;;;;;10.10;6.63;;;;;;;7.97;79.79;100040.03;5070555;28;20408;-22
2022/02/23 02:35:41;;;;;;;9.80;6.70;;;;;;;8.28;77.91;100062.53;5071170;28;20052;-22
2022/02/23 02:38:07;;;;;;;9.65;6.15;;;;;;;8.08;78.40;100062.53;5071222;28;20036;-22
2022/02/23 02:40:33;;;;;;;9.60;6.78;;;;;;;7.92;79.67;100053.91;5071160;28;20029;-22
2022/02/23 02:42:58;;;;;;;18.17;11.02;;;;;;;7.70;81.10;100073.66;5071298;28;20036;-21
2022/02/23 02:45:25;;;;;;;16.33;10.43;;;;;;;7.70;81.05;100077.13;5071008;28;20028;-22
2022/02/23 02:47:51;;;;;;;17.85;13.02;;;;;;;7.59;82.08;100075.06;5071029;28;20116;-22
2022/02/23 02:50:16;;;;;;;14.50;10.43;;;;;;;7.60;81.52;100066.06;5052946;28;20028;-21
2022/02/23 02:52:42;;;;;;;13.55;9.25;;;;;;;7.93;81.12;100076.78;5053115;28;20032;-22
2022/02/23 02:55:08;;;;;;;12.40;8.52;;;;;;;8.09;80.25;100064.13;5071336;28;20067;-21
2022/02/23 02:57:33;;;;;;;10.25;7.55;;;;;;;8.16;79.41;100087.03;5071053;28;20024;-22
2022/02/23 02:59:59;;;;;;;10.63;7.88;;;;;;;8.09;79.82;100085.38;5070988;28;20454;-22
2022/02/23 03:02:24;;;;;;;11.90;7.85;;;;;;;8.06;80.22;100097.25;5071001;28;20153;-22
2022/02/23 03:04:49;;;;;;;9.90;7.72;;;;;;;7.58;81.90;100099.94;5070527;28;20033;-22
2022/02/23 03:07:16;;;;;;;10.05;7.18;;;;;;;7.80;81.37;100092.69;5070884;28;20086;-22
2022/02/23 03:09:41;;;;;;;11.82;7.90;;;;;;;7.82;81.13;100101.25;5071030;28;20030;-22
2022/02/23 03:12:07;;;;;;;12.75;7.85;;;;;;;8.00;80.86;100104.16;5052281;28;20122;-22
2022/02/23 03:14:32;;;;;;;9.77;7.18;;;;;;;7.96;79.22;100092.31;5052453;28;20092;-22
2022/02/23 03:16:58;;;;;;;9.82;7.47;;;;;;;7.69;80.64;100111.84;5070409;28;20484;-22
2022/02/23 03:19:23;;;;;;;10.25;7.18;;;;;;;7.48;81.36;100110.97;5070587;28;20854;-21
2022/02/23 03:21:49;;;;;;;10.25;6.72;;;;;;;7.59;81.34;100107.72;5070635;28;20040;-22
2022/02/23 03:24:14;;;;;;;9.90;7.05;;;;;;;7.71;79.85;100110.63;5070667;28;20044;-22
2022/02/23 03:26:40;;;;;;;9.93;7.18;;;;;;;7.76;79.29;100118.00;5070337;28;20028;-23
2022/02/23 03:29:05;;;;;;;10.93;7.40;;;;;;;7.64;80.26;100125.69;5035858;28;20036;-22
2022/02/23 03:31:30;;;;;;;10.52;7.38;;;;;;;7.71;79.23;100123.91;5070409;28;20472;-22
2022/02/23 03:33:56;;;;;;;10.98;7.35;;;;;;;7.76;79.44;100124.09;5070162;28;20466;-21
2022/02/23 03:36:21;;;;;;;9.95;6.90;;;;;;;7.74;79.89;100130.66;5070502;28;20419;-22
2022/02/23 03:38:47;;;;;;;10.65;6.85;;;;;;;7.71;80.20;100126.56;5069898;28;20047;-21
2022/02/23 03:41:13;;;;;;;10.57;7.20;;;;;;;7.82;79.56;100133.94;5070053;28;20028;-21
2022/02/23 03:43:38;;;;;;;10.77;7.20;;;;;;;7.50;79.66;100146.06;5069944;28;20033;-22
2022/02/23 03:46:04;;;;;;;10.30;6.70;;;;;;;7.49;79.87;100131.16;5070091;28;20133;-22
2022/02/23 03:48:30;;;;;;;12.02;7.88;;;;;;;7.67;80.12;100145.75;5051707;28;20029;-23
2022/02/23 03:50:55;;;;;;;10.77;7.55;;;;;;;7.79;79.61;100128.22;5069994;28;20119;-22
2022/02/23 03:53:21;;;;;;;10.88;7.80;;;;;;;7.72;79.93;100144.09;5070091;28;20043;-23
2022/02/23 03:55:46;;;;;;;11.00;7.90;;;;;;;7.77;79.89;100147.00;5069677;28;20033;-22
2022/02/23 03:58:12;;;;;;;9.70;7.28;;;;;;;7.65;79.83;100153.91;5069808;28;20431;-23
2022/02/23 04:00:37;;;;;;;11.23;7.35;;;;;;;7.71;80.01;100153.09;5051371;28;20497;-22
2022/02/23 04:03:03;;;;;;;12.23;7.95;;;;;;;7.89;79.64;100168.50;5069555;28;20025;-22
2022/02/23 04:05:28;;;;;;;11.27;7.72;;;;;;;7.76;80.45;100176.41;5051580;28;20029;-22
2022/02/23 04:07:54;;;;;;;11.18;7.90;;;;;;;7.64;80.51;100163.69;5069537;28;20021;-22
2022/02/23 04:10:20;;;;;;;10.63;7.53;;;;;;;7.68;80.66;100182.69;5069514;28;20037;-22
2022/02/23 04:12:46;;;;;;;11.52;7.80;;;;;;;7.97;79.86;100183.44;5069007;28;20527;-22
2022/02/23 04:15:15;;;;;;;12.57;8.43;;;;;;;7.99;79.59;100184.88;5069400;28;20618;-22
2022/02/23 04:17:41;;;;;;;11.30;7.60;;;;;;;7.94;79.78;100171.34;5069017;28;20093;-22
2022/02/23 04:20:07;;;;;;;11.43;7.40;;;;;;;8.19;79.67;100197.38;5069407;28;20032;-22
2022/02/23 04:22:33;;;;;;;10.75;7.57;;;;;;;8.13;79.07;100190.22;5069182;28;20086;-21
2022/02/23 04:24:59;;;;;;;13.18;7.57;;;;;;;7.79;79.05;100166.22;5051331;28;20029;-22
2022/02/23 04:27:24;;;;;;;10.15;6.50;;;;;;;7.98;79.44;100193.84;5069135;28;20051;-22
2022/02/23 04:29:50;;;;;;;11.32;6.80;;;;;;;7.94;79.11;100189.94;5068105;28;20036;-21
2022/02/23 04:32:15;;;;;;;10.68;7.18;;;;;;;8.02;79.21;100192.44;5068970;28;20485;-22
2022/02/23 04:34:41;;;;;;;10.73;7.63;;;;;;;8.13;78.96;100199.03;5068585;28;20476;-22
2022/02/23 04:37:07;;;;;;;12.15;8.10;;;;;;;7.93;79.71;100201.59;5068804;28;20094;-21
2022/02/23 04:39:32;;;;;;;11.88;7.70;;;;;;;8.05;79.67;100185.94;5068932;28;20045;-21
2022/02/23 04:41:58;;;;;;;10.18;7.38;;;;;;;8.21;79.97;100205.97;5069254;28;20085;-21
2022/02/23 04:44:23;;;;;;;11.88;7.95;;;;;;;8.36;78.75;100198.69;5068751;28;20029;-22
2022/02/23 04:46:48;;;;;;;11.27;7.47;;;;;;;8.28;79.40;100204.16;5068760;28;20484;-23
2022/02/23 04:49:14;;;;;;;10.65;7.60;;;;;;;8.32;79.11;100204.59;5069200;28;20408;-22
2022/02/23 04:51:39;;;;;;;11.18;8.05;;;;;;;7.92;80.91;100199.94;5069026;28;20109;-22
2022/02/23 04:54:05;;;;;;;11.00;7.55;;;;;;;7.78;81.93;100214.19;5068637;28;20029;-22
2022/02/23 04:56:30;;;;;;;10.40;7.30;;;;;;;8.19;80.86;100208.00;5068112;28;20040;-22
2022/02/23 04:58:56;;;;;;;12.63;8.27;;;;;;;8.39;80.02;100214.19;5068641;28;20129;-22
2022/02/23 05:01:21;;;;;;;11.98;7.93;;;;;;;8.23;79.93;100211.91;5068468;28;20040;-22
2022/02/23 05:03:47;;;;;;;12.15;8.93;;;;;;;7.95;80.97;100212.84;5068520;28;20389;-22
2022/02/23 05:06:12;;;;;;;38.28;26.80;;;;;;;8.08;80.79;100211.25;5068677;28;20462;-21
2022/02/23 05:08:38;;;;;;;21.88;16.20;;;;;;;7.83;82.32;100231.16;5068629;28;20036;-22
2022/02/23 05:11:03;;;;;;;16.60;11.15;;;;;;;7.76;82.33;100229.50;5050250;28;20510;-21
2022/02/23 05:13:29;;;;;;;15.27;9.52;;;;;;;7.57;83.60;100225.72;5068250;28;20464;-22
2022/02/23 05:15:56;;;;;;;13.00;7.85;;;;;;;7.73;82.94;100229.91;5050338;28;20028;-22
2022/02/23 05:18:23;;;;;;;12.70;8.20;;;;;;;7.74;82.48;100242.94;5050051;28;20036;-21
2022/02/23 05:20:48;;;;;;;11.38;8.48;;;;;;;7.69;82.20;100241.91;5068249;28;20028;-22
2022/02/23 05:23:14;;;;;;;11.50;8.48;;;;;;;7.90;81.75;100243.66;5068302;28;20035;-23
2022/02/23 05:25:39;;;;;;;13.63;8.80;;;;;;;7.99;81.45;100245.16;5068328;28;20158;-22
2022/02/23 05:28:05;;;;;;;14.38;9.45;;;;;;;8.16;80.73;100250.94;5067935;28;20025;-21
2022/02/23 05:30:31;;;;;;;13.60;9.40;;;;;;;8.25;80.51;100255.88;5067684;28;20032;-23
2022/02/23 05:32:56;;;;;;;15.35;9.23;;;;;;;8.33;79.29;100252.22;5067906;28;20924;-21
2022/02/23 05:35:22;;;;;;;13.65;9.30;;;;;;;8.44;78.92;100259.66;5068386;28;20131;-22
2022/02/23 05:37:48;;;;;;;14.70;9.32;;;;;;;8.39;79.83;100261.22;5050028;28;20155;-22
2022/02/23 05:40:13;;;;;;;14.57;9.27;;;;;;;8.38;80.11;100252.44;5067821;28;20116;-22
2022/02/23 05:42:39;;;;;;;13.60;9.02;;;;;;;8.34;80.61;100266.34;5049715;28;20043;-22
2022/02/23 05:45:05;;;;;;;13.20;8.82;;;;;;;8.07;81.92;100255.59;5067869;28;20063;-22
2022/02/23 05:47:30;;;;;;;13.57;9.10;;;;;;;8.12;82.71;100266.44;5067704;28;20043;-22
2022/02/23 05:49:56;;;;;;;13.82;9.23;;;;;;;8.21;81.24;100259.09;5067712;28;20565;-22
2022/02/23 05:52:21;;;;;;;13.70;9.70;;;;;;;8.25;81.45;100265.66;5067915;28;20060;-22
2022/02/23 05:54:48;;;;;;;12.30;8.68;;;;;;;8.08;82.11;100273.16;5067673;28;20029;-22
2022/02/23 05:57:13;;;;;;;14.65;9.98;;;;;;;8.26;81.55;100272.63;5067531;28;20035;-22
2022/02/23 05:59:39;;;;;;;15.18;10.10;;;;;;;8.54;80.82;100282.34;5067571;28;20028;-22
2022/02/23 06:02:04;;;;;;;15.20;10.38;;;;;;;8.62;80.68;100271.53;5067431;28;20028;-22
2022/02/23 06:04:30;;;;;;;14.10;8.88;;;;;;;8.56;81.04;100288.28;5049575;28;20093;-23
2022/02/23 06:06:55;;;;;;;12.40;8.80;;;;;;;8.70;80.10;100279.31;5068658;28;20032;-22
2022/02/23 06:09:21;;;;;;;12.93;8.95;;;;;;;8.71;80.05;100291.63;5071941;28;20121;-22
2022/02/23 06:11:46;;;;;;;13.95;8.85;;;;;;;8.41;80.64;100289.25;5071877;28;20260;-22
2022/02/23 06:14:12;;;;;;;13.60;8.90;;;;;;;8.38;80.81;100291.50;5071556;28;20035;-22
2022/02/23 06:16:37;;;;;;;11.75;8.55;;;;;;;8.46;79.81;100294.00;5071243;28;20032;-22
2022/02/23 06:19:03;;;;;;;12.38;8.80;;;;;;;8.34;80.97;100300.88;5071559;28;20848;-21
2022/02/23 06:21:28;;;;;;;15.60;8.70;;;;;;;8.54;80.14;100300.97;5053801;28;20036;-22
2022/02/23 06:23:54;;;;;;;13.20;9.35;;;;;;;8.59;79.91;100293.22;5053305;28;20033;-22
2022/02/23 06:26:19;;;;;;;16.52;8.85;;;;;;;8.82;78.86;100293.66;5071504;28;20037;-22
2022/02/23 06:28:45;;;;;;;14.00;9.75;;;;;;;8.87;79.73;100302.88;5071139;28;20028;-21
2022/02/23 06:31:11;;;;;;;13.38;9.60;;;;;;;8.97;78.89;100305.97;5036361;28;20522;-22
2022/02/23 06:33:40;;;;;;;14.82;9.55;;;;;;;8.90;79.24;100321.94;5071601;28;20082;-22
2022/02/23 06:36:05;;;;;;;14.27;9.70;;;;;;;8.84;79.50;100314.75;5071630;28;20028;-22
2022/02/23 06:38:31;;;;;;;16.05;11.18;;;;;;;8.80;79.91;100319.66;5071256;28;20106;-22
2022/02/23 06:40:57;;;;;;;15.75;10.75;;;;;;;8.73;80.41;100321.47;5071357;28;20040;-22
2022/02/23 06:43:22;;;;;;;16.77;11.20;;;;;;;8.76;80.38;100322.91;5071243;28;20039;-22
2022/02/23 06:45:49;;;;;;;16.20;10.98;;;;;;;8.73;80.41;100326.00;5071002;28;20081;-22
2022/02/23 06:48:14;;;;;;;13.60;10.05;;;;;;;8.58;80.43;100318.16;5071406;28;20035;-22
2022/02/23 06:50:40;;;;;;;14.98;11.05;;;;;;;8.57;80.46;100321.84;5071089;28;20044;-22
2022/02/23 06:53:09;;;;;;;14.10;9.90;;;;;;;8.51;80.51;100327.94;5071344;28;20056;-22
2022/02/23 06:55:34;;;;;;;14.45;9.65;;;;;;;8.47;80.54;100332.84;5051993;28;20040;-22
2022/02/23 06:57:59;;;;;;;13.50;9.90;;;;;;;8.34;80.42;100341.56;5053094;28;20033;-22
2022/02/23 07:00:28;;;;;;;14.68;10.52;;;;;;;8.35;79.95;100345.84;5070613;28;20044;-22
2022/02/23 07:02:54;;;;;;;14.32;9.23;;;;;;;8.25;80.45;100348.03;5070664;28;20040;-22
2022/02/23 07:05:20;;;;;;;14.10;9.23;;;;;;;8.27;79.89;100329.25;5070781;28;20119;-22
2022/02/23 07:07:46;;;;;;;13.88;10.15;;;;;;;8.35;80.32;100343.19;5045343;28;20028;-22
2022/02/23 07:10:23;;;;;;;14.80;9.57;;;;;;;8.63;78.30;100358.25;5060511;28;20551;-22
2022/02/23 07:12:49;;;;;;;15.00;9.45;;;;;;;8.54;78.81;100354.97;5050045;28;20554;-22
2022/02/23 07:15:16;;;;;;;15.32;9.15;;;;;;;8.10;79.98;100342.03;5050597;28;20037;-22
2022/02/23 07:17:41;;;;;;;14.15;8.75;;;;;;;8.10;80.16;100342.84;5031898;28;20547;-21
2022/02/23 07:20:08;;;;;;;15.15;10.00;;;;;;;8.45;79.77;100372.91;5050656;28;20029;-22
2022/02/23 07:22:33;;;;;;;14.65;9.35;;;;;;;8.60;79.75;100363.97;5050257;28;20108;-22
2022/02/23 07:24:59;;;;;;;14.05;9.80;;;;;;;8.57;79.78;100375.00;5050374;28;20029;-22
2022/02/23 07:27:26;;;;;;;20.17;12.68;;;;;;;8.45;80.28;100372.91;5050358;28;20751;-22
2022/02/23 07:29:52;;;;;;;22.57;14.80;;;;;;;9.03;79.77;100383.16;5050279;28;20033;-22
2022/02/23 07:32:26;;;;;;;26.60;16.70;;;;;;;9.05;78.03;100378.44;5050468;28;20076;-22
2022/02/23 07:34:52;;;;;;;14.02;9.63;;;;;;;8.87;77.49;100369.38;5049960;28;20039;-23
2022/02/23 07:37:17;;;;;;;13.50;9.52;;;;;;;8.73;77.91;100374.66;5050233;28;20436;-22
2022/02/23 07:39:43;;;;;;;23.02;13.38;;;;;;;8.85;78.06;100374.91;5050000;28;20558;-21
2022/02/23 07:42:09;;;;;;;18.38;12.30;;;;;;;9.01;78.08;100395.84;5049889;28;20051;-22
2022/02/23 07:44:34;;;;;;;19.17;12.77;;;;;;;8.79;78.82;100381.84;5049892;28;20410;-22
2022/02/23 07:47:00;;;;;;;15.70;10.70;;;;;;;8.63;79.84;100383.00;5049953;28;20178;-22
2022/02/23 07:49:26;;;;;;;67.30;32.60;;;;;;;8.76;80.03;100390.19;5049913;28;20040;-22
2022/02/23 07:51:52;;;;;;;18.98;12.40;;;;;;;9.09;79.28;100413.44;5050101;28;20285;-22
2022/02/23 07:54:17;;;;;;;16.75;10.70;;;;;;;8.78;79.94;100398.00;5049750;28;20696;-22
2022/02/23 07:56:43;;;;;;;20.60;12.93;;;;;;;8.82;80.82;100388.59;5049210;28;20032;-22
2022/02/23 07:59:08;;;;;;;21.48;13.30;;;;;;;8.87;80.66;100385.34;5049846;28;20111;-22
2022/02/23 08:01:41;;;;;;;23.98;15.50;;;;;;;8.94;81.34;100402.16;5031759;28;20044;-22
2022/02/23 08:04:07;;;;;;;109.88;57.13;;;;;;;9.09;79.50;100401.97;5049834;28;20025;-22
2022/02/23 08:06:32;;;;;;;21.05;13.63;;;;;;;8.92;79.75;100404.19;5031258;28;20040;-22
2022/02/23 08:09:02;;;;;;;17.65;11.98;;;;;;;9.01;79.49;100401.16;5049410;28;20048;-22
2022/02/23 08:11:29;;;;;;;16.02;10.95;;;;;;;9.00;78.75;100404.00;5049239;28;20044;-22
2022/02/23 08:14:04;;;;;;;15.85;10.73;;;;;;;8.97;79.11;100402.56;5031803;28;20076;-21
2022/02/23 08:19:31;;;;;;;53.58;40.47;;;;;;;9.28;77.35;100408.38;5034080;28;20091;-22
2022/02/23 08:22:05;;;;;;;15.57;11.30;;;;;;;9.07;78.26;100396.84;5049147;28;20478;-22
2022/02/23 08:24:33;;;;;;;15.63;10.00;;;;;;;9.25;77.55;100406.94;5049187;28;20060;-23
2022/02/23 08:26:59;;;;;;;16.02;10.98;;;;;;;8.97;79.31;100412.38;5031591;28;20028;-22
2022/02/23 08:29:25;;;;;;;14.48;11.10;;;;;;;9.08;77.32;100419.78;5048262;28;20116;-22
2022/02/23 08:31:50;;;;;;;15.25;11.25;;;;;;;9.05;76.31;100425.50;5049151;28;20561;-22
2022/02/23 08:34:17;;;;;;;18.02;12.52;;;;;;;8.92;76.76;100420.16;5031047;28;20028;-23
2022/02/23 08:36:43;;;;;;;15.45;12.02;;;;;;;8.90;77.47;100416.88;5048690;28;20033;-21
2022/02/23 08:39:09;;;;;;;20.40;14.90;;;;;;;8.89;77.98;100417.88;5049157;28;20029;-22
2022/02/23 08:41:34;;;;;;;29.15;18.17;;;;;;;8.92;77.14;100417.47;5048766;28;20037;-24
2022/02/23 08:44:00;;;;;;;38.97;18.90;;;;;;;9.00;76.82;100427.94;5048879;28;20110;-23
2022/02/23 08:46:26;;;;;;;52.20;21.65;;;;;;;8.95;76.27;100425.06;5048625;28;20037;-22
2022/02/23 08:48:52;;;;;;;61.67;23.63;;;;;;;8.93;76.03;100427.94;5048550;28;20035;-21
2022/02/23 08:51:18;;;;;;;106.28;34.90;;;;;;;9.14;75.99;100418.97;5048926;28;20492;-22
2022/02/23 08:53:43;;;;;;;43.25;20.30;;;;;;;9.29;75.72;100426.78;5048935;28;20067;-22
2022/02/23 08:56:09;;;;;;;43.05;20.40;;;;;;;9.07;75.96;100394.19;5031009;28;20116;-22
2022/02/23 08:58:34;;;;;;;18.88;12.40;;;;;;;8.82;74.16;100423.16;5048175;28;20032;-22
2022/02/23 09:01:00;;;;;;;23.52;14.18;;;;;;;8.84;75.94;100419.28;5048332;28;20261;-23
2022/02/23 09:03:28;;;;;;;27.85;15.25;;;;;;;8.90;76.35;100417.69;5048379;28;20028;-22
2022/02/23 09:05:54;;;;;;;21.02;14.52;;;;;;;9.16;77.23;100422.25;5031173;28;20578;-23
2022/02/23 09:08:19;;;;;;;18.27;12.35;;;;;;;8.95;73.96;100430.38;5048549;28;20025;-22
2022/02/23 09:10:45;;;;;;;31.00;20.30;;;;;;;8.81;75.13;100434.84;5048121;28;20044;-22
2022/02/23 09:13:10;;;;;;;21.75;15.15;;;;;;;8.64;77.46;100423.69;5048271;28;20060;-22
2022/02/23 09:15:35;;;;;;;20.77;14.07;;;;;;;8.64;75.57;100413.91;5048149;28;20083;-21
2022/02/23 09:18:03;;;;;;;17.88;12.95;;;;;;;8.56;76.82;100431.84;5047998;28;20049;-22
2022/02/23 09:20:28;;;;;;;22.23;15.35;;;;;;;9.05;76.33;100436.13;5030512;28;20067;-21
2022/02/23 09:22:54;;;;;;;20.17;13.43;;;;;;;8.97;75.56;100438.97;5030084;28;20059;-22
2022/02/23 09:25:20;;;;;;;20.83;14.15;;;;;;;8.96;75.49;100432.03;5047999;28;20069;-22
2022/02/23 09:27:46;;;;;;;19.23;13.75;;;;;;;9.27;75.35;100436.81;5013824;28;20029;-21
2022/02/23 09:30:12;;;;;;;19.60;13.23;;;;;;;9.30;73.56;100443.59;5029898;28;20033;-22
2022/02/23 09:32:38;;;;;;;33.53;19.95;;;;;;;9.22;73.51;100442.75;5047880;28;20045;-22
2022/02/23 09:35:04;;;;;;;19.42;12.93;;;;;;;9.16;72.90;100437.41;5048269;28;20090;-23
2022/02/23 09:37:30;;;;;;;21.05;13.90;;;;;;;9.31;73.83;100453.22;5030108;28;20033;-22
2022/02/23 09:39:55;;;;;;;19.92;12.40;;;;;;;9.32;72.05;100446.88;5030085;28;20460;-22
2022/02/23 09:42:21;;;;;;;18.92;13.85;;;;;;;9.25;72.86;100453.00;5047725;28;20102;-22
2022/02/23 09:44:47;;;;;;;19.38;13.32;;;;;;;9.45;72.71;100457.53;5013511;28;20027;-22
2022/02/23 09:47:14;;;;;;;19.65;12.80;;;;;;;9.50;71.42;100452.44;5029886;28;20037;-22
2022/02/23 09:49:43;;;;;;;18.80;13.35;;;;;;;9.69;71.67;100460.66;5030079;28;20028;-23
2022/02/23 09:52:08;;;;;;;18.25;12.85;;;;;;;9.91;69.14;100454.13;5029903;28;20044;-22
2022/02/23 09:54:34;;;;;;;20.02;13.80;;;;;;;9.89;72.20;100442.84;5013207;28;20029;-22
2022/02/23 09:56:59;;;;;;;20.20;14.15;;;;;;;10.10;70.79;100460.47;5047582;28;20473;-22
2022/02/23 09:59:25;;;;;;;21.00;13.50;;;;;;;10.35;70.96;100458.00;5047459;28;20029;-23
2022/02/23 10:01:53;;;;;;;19.17;13.70;;;;;;;10.54;70.49;100445.69;5047795;28;20032;-22
2022/02/23 10:04:22;;;;;;;17.52;11.82;;;;;;;10.49;68.13;100458.00;5047646;28;20025;-22
2022/02/23 10:06:47;;;;;;;19.48;13.73;;;;;;;10.51;71.11;100455.94;5030053;28;20137;-22
2022/02/23 10:09:13;;;;;;;24.73;16.38;;;;;;;12.39;66.04;100446.59;5047437;28;20476;-23
2022/02/23 10:11:43;;;;;;;20.73;13.70;;;;;;;11.93;64.89;100454.00;5029481;28;20083;-22
2022/02/23 10:14:08;;;;;;;17.38;12.55;;;;;;;13.46;62.71;100446.13;5029323;28;20119;-22
2022/02/23 10:16:35;;;;;;;18.70;13.20;;;;;;;13.27;60.53;100443.47;5029704;28;20120;-22
2022/02/23 10:19:21;;;;;;;21.67;14.55;;;;;;;14.86;60.94;100433.78;5029718;28;20033;-23
2022/02/23 10:21:59;;;;;;;14.80;11.27;;;;;;;13.11;58.27;100443.28;4998948;28;20021;-22
2022/02/23 10:24:38;;;;;;;15.32;10.70;;;;;;;12.60;57.97;100442.66;5030190;28;20036;-22
2022/02/23 10:27:10;;;;;;;14.88;11.52;;;;;;;12.21;59.99;100444.69;5013274;28;20025;-22
2022/02/23 10:29:36;;;;;;;15.95;11.30;;;;;;;11.81;62.42;100443.16;5029482;28;20086;-22
2022/02/23 10:32:06;;;;;;;17.40;12.60;;;;;;;11.81;61.40;100428.97;5047410;28;20021;-23
2022/02/23 10:34:35;;;;;;;17.65;11.65;;;;;;;12.03;62.18;100435.63;5012825;28;20037;-22
2022/02/23 10:37:03;;;;;;;22.52;12.48;;;;;;;12.06;64.26;100432.50;5013075;28;20863;-23
2022/02/23 10:39:45;;;;;;;18.55;12.38;;;;;;;12.30;61.74;100427.34;5047346;28;20025;-22
2022/02/23 10:42:15;;;;;;;18.27;12.90;;;;;;;12.00;61.28;100419.19;5062029;28;20036;-22
2022/02/23 10:44:48;;;;;;;17.65;11.70;;;;;;;12.08;62.32;100424.25;5029057;28;20041;-22
2022/02/23 10:47:26;;;;;;;19.08;13.45;;;;;;;12.10;65.01;100411.50;5029581;28;20036;-23
2022/02/23 10:50:08;;;;;;;19.58;12.80;;;;;;;12.37;62.25;100416.56;5029435;28;20035;-22
2022/02/23 10:52:39;;;;;;;17.55;12.40;;;;;;;12.54;61.66;100406.91;5047320;28;20029;-22
2022/02/23 10:55:23;;;;;;;17.10;12.10;;;;;;;11.96;61.63;100416.13;5050931;28;20121;-21
2022/02/23 10:57:51;;;;;;;19.08;12.73;;;;;;;11.98;62.70;100410.56;5062598;28;20104;-23
2022/02/23 11:00:21;;;;;;;15.32;11.50;;;;;;;12.30;61.59;100405.94;5053144;28;20059;-22
2022/02/23 11:02:47;;;;;;;18.40;13.20;;;;;;;12.34;61.61;100391.09;5070562;28;20561;-22
2022/02/23 11:05:13;;;;;;;20.58;13.23;;;;;;;11.89;61.63;100396.69;5052770;28;20044;-22
2022/02/23 11:07:42;;;;;;;53.55;29.65;;;;;;;12.19;62.71;100404.00;5070600;28;20039;-22
2022/02/23 11:10:13;;;;;;;19.40;13.82;;;;;;;12.35;64.07;100387.38;5052975;28;20059;-21
2022/02/23 11:12:45;;;;;;;22.42;14.80;;;;;;;12.70;64.59;100402.00;5052925;28;20144;-22
2022/02/23 11:15:15;;;;;;;18.45;13.15;;;;;;;12.56;61.16;100401.34;5053627;28;20044;-22
2022/02/23 11:17:43;;;;;;;16.42;11.35;;;;;;;12.43;63.16;100381.72;5036115;28;20393;-22
2022/02/23 11:20:10;;;;;;;18.38;13.73;;;;;;;12.45;61.67;100401.03;5052518;28;20131;-22
2022/02/23 11:22:35;;;;;;;16.65;12.32;;;;;;;12.45;61.38;100406.38;5036159;28;20033;-22